sensor_id;sensor_type;location;lat;lon;timestamp;P1;durP1;ratioP1;P2;durP2;ratioP2
52674;SDS011;38569;52.722;6.440;2022-10-22T00:01:33;12.43;;;6.70;;
52674;SDS011;38569;52.722;6.440;2022-10-22T00:03:59;13.90;;;7.15;;
52674;SDS011;38569;52.722;6.440;2022-10-22T00:06:25;13.32;;;7.90;;
52674;SDS011;38569;52.722;6.440;2022-10-22T00:08:51;13.18;;;7.63;;
52674;SDS011;38569;52.722;6.440;2022-10-22T00:11:18;11.10;;;7.63;;
52674;SDS011;38569;52.722;6.440;2022-10-22T00:13:44;17.15;;;9.23;;
52674;SDS011;38569;52.722;6.440;2022-10-22T00:16:11;13.77;;;7.70;;
52674;SDS011;38569;52.722;6.440;2022-10-22T00:18:37;18.85;;;9.02;;
52674;SDS011;38569;52.722;6.440;2022-10-22T00:21:04;10.10;;;7.60;;
52674;SDS011;38569;52.722;6.440;2022-10-22T00:23:30;13.93;;;8.40;;
52674;SDS011;38569;52.722;6.440;2022-10-22T00:25:56;12.40;;;7.72;;
52674;SDS011;38569;52.722;6.440;2022-10-22T00:28:21;12.55;;;7.72;;
52674;SDS011;38569;52.722;6.440;2022-10-22T00:30:53;13.95;;;7.55;;
52674;SDS011;38569;52.722;6.440;2022-10-22T00:33:23;14.15;;;9.35;;
52674;SDS011;38569;52.722;6.440;2022-10-22T00:35:49;14.13;;;8.65;;
52674;SDS011;38569;52.722;6.440;2022-10-22T00:38:15;13.20;;;8.38;;
52674;SDS011;38569;52.722;6.440;2022-10-22T00:40:41;16.88;;;8.65;;
52674;SDS011;38569;52.722;6.440;2022-10-22T00:43:14;14.98;;;9.00;;
52674;SDS011;38569;52.722;6.440;2022-10-22T00:45:42;12.50;;;9.07;;
52674;SDS011;38569;52.722;6.440;2022-10-22T00:48:19;18.52;;;9.93;;
52674;SDS011;38569;52.722;6.440;2022-10-22T00:50:53;15.88;;;9.60;;
52674;SDS011;38569;52.722;6.440;2022-10-22T00:55:53;19.65;;;9.90;;
52674;SDS011;38569;52.722;6.440;2022-10-22T00:58:20;17.25;;;11.23;;
52674;SDS011;38569;52.722;6.440;2022-10-22T01:00:50;15.88;;;9.43;;
52674;SDS011;38569;52.722;6.440;2022-10-22T01:03:15;15.25;;;9.98;;
52674;SDS011;38569;52.722;6.440;2022-10-22T01:05:42;14.32;;;9.93;;
52674;SDS011;38569;52.722;6.440;2022-10-22T01:08:17;13.88;;;9.65;;
52674;SDS011;38569;52.722;6.440;2022-10-22T01:11:20;15.65;;;11.13;;
52674;SDS011;38569;52.722;6.440;2022-10-22T01:13:58;19.85;;;10.98;;
52674;SDS011;38569;52.722;6.440;2022-10-22T01:19:31;14.88;;;9.00;;
52674;SDS011;38569;52.722;6.440;2022-10-22T01:22:05;17.50;;;9.65;;
52674;SDS011;38569;52.722;6.440;2022-10-22T01:24:56;16.00;;;10.57;;
52674;SDS011;38569;52.722;6.440;2022-10-22T01:27:41;12.68;;;10.10;;
52674;SDS011;38569;52.722;6.440;2022-10-22T01:30:27;16.20;;;8.48;;
52674;SDS011;38569;52.722;6.440;2022-10-22T01:32:55;13.00;;;9.57;;
52674;SDS011;38569;52.722;6.440;2022-10-22T01:35:26;14.02;;;9.45;;
52674;SDS011;38569;52.722;6.440;2022-10-22T01:37:56;22.48;;;9.02;;
52674;SDS011;38569;52.722;6.440;2022-10-22T01:40:25;15.68;;;9.82;;
52674;SDS011;38569;52.722;6.440;2022-10-22T01:43:00;16.50;;;11.15;;
52674;SDS011;38569;52.722;6.440;2022-10-22T01:45:28;18.15;;;10.15;;
52674;SDS011;38569;52.722;6.440;2022-10-22T01:48:07;18.58;;;9.70;;
52674;SDS011;38569;52.722;6.440;2022-10-22T01:53:22;15.13;;;10.68;;
52674;SDS011;38569;52.722;6.440;2022-10-22T01:56:21;14.10;;;9.68;;
52674;SDS011;38569;52.722;6.440;2022-10-22T01:59:11;21.38;;;10.63;;
52674;SDS011;38569;52.722;6.440;2022-10-22T02:01:58;16.00;;;10.70;;
52674;SDS011;38569;52.722;6.440;2022-10-22T02:04:37;20.65;;;12.35;;
52674;SDS011;38569;52.722;6.440;2022-10-22T02:07:22;16.30;;;10.57;;
52674;SDS011;38569;52.722;6.440;2022-10-22T02:09:52;26.67;;;11.82;;
52674;SDS011;38569;52.722;6.440;2022-10-22T02:12:20;19.70;;;12.95;;
52674;SDS011;38569;52.722;6.440;2022-10-22T02:14:48;14.80;;;11.68;;
52674;SDS011;38569;52.722;6.440;2022-10-22T02:17:17;18.58;;;11.35;;
52674;SDS011;38569;52.722;6.440;2022-10-22T02:24:45;17.75;;;12.18;;
52674;SDS011;38569;52.722;6.440;2022-10-22T02:32:31;17.52;;;11.75;;
52674;SDS011;38569;52.722;6.440;2022-10-22T02:35:03;19.27;;;12.15;;
52674;SDS011;38569;52.722;6.440;2022-10-22T02:37:31;20.65;;;12.20;;
52674;SDS011;38569;52.722;6.440;2022-10-22T02:39:57;17.40;;;12.40;;
52674;SDS011;38569;52.722;6.440;2022-10-22T02:42:23;16.13;;;11.55;;
52674;SDS011;38569;52.722;6.440;2022-10-22T02:44:50;19.23;;;12.32;;
52674;SDS011;38569;52.722;6.440;2022-10-22T02:47:16;24.60;;;13.68;;
52674;SDS011;38569;52.722;6.440;2022-10-22T02:49:42;21.17;;;13.57;;
52674;SDS011;38569;52.722;6.440;2022-10-22T02:52:08;20.15;;;12.07;;
52674;SDS011;38569;52.722;6.440;2022-10-22T02:54:33;20.45;;;14.57;;
52674;SDS011;38569;52.722;6.440;2022-10-22T02:56:59;23.38;;;15.25;;
52674;SDS011;38569;52.722;6.440;2022-10-22T02:59:24;18.40;;;13.38;;
52674;SDS011;38569;52.722;6.440;2022-10-22T03:01:50;23.92;;;14.00;;
52674;SDS011;38569;52.722;6.440;2022-10-22T03:04:16;21.40;;;14.52;;
52674;SDS011;38569;52.722;6.440;2022-10-22T03:06:41;26.15;;;15.23;;
52674;SDS011;38569;52.722;6.440;2022-10-22T03:09:08;27.27;;;15.32;;
52674;SDS011;38569;52.722;6.440;2022-10-22T03:11:34;21.30;;;14.13;;
52674;SDS011;38569;52.722;6.440;2022-10-22T03:14:00;19.98;;;14.45;;
52674;SDS011;38569;52.722;6.440;2022-10-22T03:16:26;22.90;;;15.13;;
52674;SDS011;38569;52.722;6.440;2022-10-22T03:18:51;25.08;;;14.40;;
52674;SDS011;38569;52.722;6.440;2022-10-22T03:24:07;26.60;;;14.43;;
52674;SDS011;38569;52.722;6.440;2022-10-22T03:26:36;21.55;;;14.02;;
52674;SDS011;38569;52.722;6.440;2022-10-22T03:29:03;28.58;;;15.82;;
52674;SDS011;38569;52.722;6.440;2022-10-22T03:31:29;18.35;;;14.80;;
52674;SDS011;38569;52.722;6.440;2022-10-22T03:33:55;21.98;;;15.82;;
52674;SDS011;38569;52.722;6.440;2022-10-22T03:36:21;27.40;;;16.48;;
52674;SDS011;38569;52.722;6.440;2022-10-22T03:38:47;26.65;;;14.95;;
52674;SDS011;38569;52.722;6.440;2022-10-22T03:41:12;23.33;;;16.85;;
52674;SDS011;38569;52.722;6.440;2022-10-22T03:43:38;22.52;;;15.52;;
52674;SDS011;38569;52.722;6.440;2022-10-22T03:46:05;22.65;;;15.50;;
52674;SDS011;38569;52.722;6.440;2022-10-22T03:48:31;19.30;;;14.52;;
52674;SDS011;38569;52.722;6.440;2022-10-22T03:50:57;26.13;;;16.92;;
52674;SDS011;38569;52.722;6.440;2022-10-22T03:53:23;25.52;;;18.23;;
52674;SDS011;38569;52.722;6.440;2022-10-22T03:55:48;22.70;;;16.13;;
52674;SDS011;38569;52.722;6.440;2022-10-22T03:58:14;31.65;;;17.88;;
52674;SDS011;38569;52.722;6.440;2022-10-22T04:00:40;23.95;;;16.95;;
52674;SDS011;38569;52.722;6.440;2022-10-22T04:03:05;22.55;;;16.30;;
52674;SDS011;38569;52.722;6.440;2022-10-22T04:05:32;32.30;;;17.58;;
52674;SDS011;38569;52.722;6.440;2022-10-22T04:07:58;24.13;;;16.25;;
52674;SDS011;38569;52.722;6.440;2022-10-22T04:10:24;37.03;;;16.75;;
52674;SDS011;38569;52.722;6.440;2022-10-22T04:12:50;29.45;;;17.27;;
52674;SDS011;38569;52.722;6.440;2022-10-22T04:15:15;27.05;;;16.45;;
52674;SDS011;38569;52.722;6.440;2022-10-22T04:17:41;30.08;;;17.42;;
52674;SDS011;38569;52.722;6.440;2022-10-22T04:20:07;29.13;;;19.98;;
52674;SDS011;38569;52.722;6.440;2022-10-22T04:22:34;29.17;;;18.80;;
52674;SDS011;38569;52.722;6.440;2022-10-22T04:25:00;30.05;;;17.77;;
52674;SDS011;38569;52.722;6.440;2022-10-22T04:27:33;45.90;;;20.65;;
52674;SDS011;38569;52.722;6.440;2022-10-22T04:29:59;23.23;;;15.05;;
52674;SDS011;38569;52.722;6.440;2022-10-22T04:32:25;33.40;;;18.05;;
52674;SDS011;38569;52.722;6.440;2022-10-22T04:34:52;29.60;;;18.52;;
52674;SDS011;38569;52.722;6.440;2022-10-22T04:37:17;30.23;;;16.40;;
52674;SDS011;38569;52.722;6.440;2022-10-22T04:39:43;26.23;;;17.10;;
52674;SDS011;38569;52.722;6.440;2022-10-22T04:42:09;28.90;;;17.33;;
52674;SDS011;38569;52.722;6.440;2022-10-22T04:44:35;27.90;;;18.13;;
52674;SDS011;38569;52.722;6.440;2022-10-22T04:47:01;33.03;;;18.40;;
52674;SDS011;38569;52.722;6.440;2022-10-22T04:49:27;35.42;;;22.10;;
52674;SDS011;38569;52.722;6.440;2022-10-22T04:51:52;31.55;;;18.75;;
52674;SDS011;38569;52.722;6.440;2022-10-22T04:54:18;35.13;;;21.10;;
52674;SDS011;38569;52.722;6.440;2022-10-22T04:56:44;42.38;;;22.08;;
52674;SDS011;38569;52.722;6.440;2022-10-22T04:59:09;33.80;;;18.40;;
52674;SDS011;38569;52.722;6.440;2022-10-22T05:01:41;26.88;;;16.38;;
52674;SDS011;38569;52.722;6.440;2022-10-22T05:04:13;39.53;;;20.38;;
52674;SDS011;38569;52.722;6.440;2022-10-22T05:06:40;28.88;;;18.13;;
52674;SDS011;38569;52.722;6.440;2022-10-22T05:09:07;25.70;;;16.45;;
52674;SDS011;38569;52.722;6.440;2022-10-22T05:11:37;26.45;;;17.85;;
52674;SDS011;38569;52.722;6.440;2022-10-22T05:14:05;28.63;;;18.48;;
52674;SDS011;38569;52.722;6.440;2022-10-22T05:16:32;32.47;;;17.77;;
52674;SDS011;38569;52.722;6.440;2022-10-22T05:18:58;25.27;;;16.20;;
52674;SDS011;38569;52.722;6.440;2022-10-22T05:21:25;26.98;;;16.67;;
52674;SDS011;38569;52.722;6.440;2022-10-22T05:23:52;26.88;;;16.90;;
52674;SDS011;38569;52.722;6.440;2022-10-22T05:26:19;24.27;;;15.27;;
52674;SDS011;38569;52.722;6.440;2022-10-22T05:28:46;24.33;;;15.77;;
52674;SDS011;38569;52.722;6.440;2022-10-22T05:31:13;31.08;;;16.75;;
52674;SDS011;38569;52.722;6.440;2022-10-22T05:33:40;21.60;;;14.38;;
52674;SDS011;38569;52.722;6.440;2022-10-22T05:36:07;24.70;;;14.00;;
52674;SDS011;38569;52.722;6.440;2022-10-22T05:38:37;25.95;;;14.52;;
52674;SDS011;38569;52.722;6.440;2022-10-22T05:41:07;22.40;;;13.55;;
52674;SDS011;38569;52.722;6.440;2022-10-22T05:43:35;21.25;;;13.57;;
52674;SDS011;38569;52.722;6.440;2022-10-22T05:46:05;24.02;;;12.90;;
52674;SDS011;38569;52.722;6.440;2022-10-22T05:48:32;26.50;;;13.60;;
52674;SDS011;38569;52.722;6.440;2022-10-22T05:51:02;18.25;;;12.35;;
52674;SDS011;38569;52.722;6.440;2022-10-22T05:53:33;16.90;;;10.50;;
52674;SDS011;38569;52.722;6.440;2022-10-22T05:56:00;22.73;;;10.68;;
52674;SDS011;38569;52.722;6.440;2022-10-22T05:58:27;17.60;;;11.20;;
52674;SDS011;38569;52.722;6.440;2022-10-22T06:00:53;19.38;;;11.85;;
52674;SDS011;38569;52.722;6.440;2022-10-22T06:03:19;23.02;;;12.07;;
52674;SDS011;38569;52.722;6.440;2022-10-22T06:05:44;20.13;;;10.48;;
52674;SDS011;38569;52.722;6.440;2022-10-22T06:08:10;23.15;;;9.30;;
52674;SDS011;38569;52.722;6.440;2022-10-22T06:10:39;14.00;;;9.57;;
52674;SDS011;38569;52.722;6.440;2022-10-22T06:13:06;17.25;;;10.57;;
52674;SDS011;38569;52.722;6.440;2022-10-22T06:15:32;14.45;;;9.45;;
52674;SDS011;38569;52.722;6.440;2022-10-22T06:17:58;18.55;;;10.02;;
52674;SDS011;38569;52.722;6.440;2022-10-22T06:20:24;14.02;;;8.80;;
52674;SDS011;38569;52.722;6.440;2022-10-22T06:22:50;14.75;;;8.63;;
52674;SDS011;38569;52.722;6.440;2022-10-22T06:25:16;16.10;;;8.65;;
52674;SDS011;38569;52.722;6.440;2022-10-22T06:27:41;13.68;;;8.93;;
52674;SDS011;38569;52.722;6.440;2022-10-22T06:30:07;13.43;;;8.20;;
52674;SDS011;38569;52.722;6.440;2022-10-22T06:32:33;16.20;;;8.32;;
52674;SDS011;38569;52.722;6.440;2022-10-22T06:34:59;12.55;;;7.32;;
52674;SDS011;38569;52.722;6.440;2022-10-22T06:37:25;13.20;;;8.00;;
52674;SDS011;38569;52.722;6.440;2022-10-22T06:39:51;16.25;;;7.85;;
52674;SDS011;38569;52.722;6.440;2022-10-22T06:42:16;18.00;;;8.13;;
52674;SDS011;38569;52.722;6.440;2022-10-22T06:44:42;13.85;;;7.82;;
52674;SDS011;38569;52.722;6.440;2022-10-22T06:47:08;12.93;;;7.03;;
52674;SDS011;38569;52.722;6.440;2022-10-22T06:49:33;12.52;;;7.80;;
52674;SDS011;38569;52.722;6.440;2022-10-22T06:51:59;22.52;;;8.93;;
52674;SDS011;38569;52.722;6.440;2022-10-22T06:54:25;19.17;;;8.02;;
52674;SDS011;38569;52.722;6.440;2022-10-22T06:56:50;11.68;;;6.88;;
52674;SDS011;38569;52.722;6.440;2022-10-22T06:59:16;15.32;;;8.00;;
52674;SDS011;38569;52.722;6.440;2022-10-22T07:01:42;14.68;;;7.22;;
52674;SDS011;38569;52.722;6.440;2022-10-22T07:04:08;10.70;;;6.88;;
52674;SDS011;38569;52.722;6.440;2022-10-22T07:06:34;12.35;;;8.50;;
52674;SDS011;38569;52.722;6.440;2022-10-22T07:09:00;16.17;;;7.57;;
52674;SDS011;38569;52.722;6.440;2022-10-22T07:11:29;15.07;;;7.90;;
52674;SDS011;38569;52.722;6.440;2022-10-22T07:14:01;17.55;;;6.75;;
52674;SDS011;38569;52.722;6.440;2022-10-22T07:16:27;13.93;;;7.15;;
52674;SDS011;38569;52.722;6.440;2022-10-22T07:18:52;13.93;;;7.55;;
52674;SDS011;38569;52.722;6.440;2022-10-22T07:21:18;12.32;;;6.70;;
52674;SDS011;38569;52.722;6.440;2022-10-22T07:23:44;12.57;;;7.32;;
52674;SDS011;38569;52.722;6.440;2022-10-22T07:26:11;13.35;;;7.22;;
52674;SDS011;38569;52.722;6.440;2022-10-22T07:28:39;16.33;;;7.03;;
52674;SDS011;38569;52.722;6.440;2022-10-22T07:31:09;17.90;;;7.97;;
52674;SDS011;38569;52.722;6.440;2022-10-22T07:33:36;17.02;;;8.13;;
52674;SDS011;38569;52.722;6.440;2022-10-22T07:36:04;13.25;;;7.47;;
52674;SDS011;38569;52.722;6.440;2022-10-22T07:38:32;15.52;;;6.63;;
52674;SDS011;38569;52.722;6.440;2022-10-22T07:40:58;18.45;;;6.25;;
52674;SDS011;38569;52.722;6.440;2022-10-22T07:43:24;12.10;;;6.93;;
52674;SDS011;38569;52.722;6.440;2022-10-22T07:45:50;13.68;;;6.93;;
52674;SDS011;38569;52.722;6.440;2022-10-22T07:48:16;14.18;;;8.13;;
52674;SDS011;38569;52.722;6.440;2022-10-22T07:50:42;17.88;;;6.97;;
52674;SDS011;38569;52.722;6.440;2022-10-22T07:53:08;17.85;;;6.45;;
52674;SDS011;38569;52.722;6.440;2022-10-22T07:55:34;18.23;;;6.88;;
52674;SDS011;38569;52.722;6.440;2022-10-22T07:58:00;16.52;;;6.88;;
52674;SDS011;38569;52.722;6.440;2022-10-22T08:00:25;14.43;;;6.25;;
52674;SDS011;38569;52.722;6.440;2022-10-22T08:02:51;15.93;;;6.93;;
52674;SDS011;38569;52.722;6.440;2022-10-22T08:05:17;15.80;;;6.88;;
52674;SDS011;38569;52.722;6.440;2022-10-22T08:07:43;14.48;;;7.28;;
52674;SDS011;38569;52.722;6.440;2022-10-22T08:10:09;14.52;;;6.90;;
52674;SDS011;38569;52.722;6.440;2022-10-22T08:12:35;21.00;;;8.20;;
52674;SDS011;38569;52.722;6.440;2022-10-22T08:15:02;14.07;;;7.68;;
52674;SDS011;38569;52.722;6.440;2022-10-22T08:17:28;16.83;;;6.82;;
52674;SDS011;38569;52.722;6.440;2022-10-22T08:19:54;14.40;;;6.65;;
52674;SDS011;38569;52.722;6.440;2022-10-22T08:22:19;17.23;;;6.93;;
52674;SDS011;38569;52.722;6.440;2022-10-22T08:24:45;14.02;;;6.07;;
52674;SDS011;38569;52.722;6.440;2022-10-22T08:27:11;20.08;;;6.93;;
52674;SDS011;38569;52.722;6.440;2022-10-22T08:29:37;16.92;;;6.63;;
52674;SDS011;38569;52.722;6.440;2022-10-22T08:32:02;17.02;;;6.32;;
52674;SDS011;38569;52.722;6.440;2022-10-22T08:34:29;14.05;;;5.65;;
52674;SDS011;38569;52.722;6.440;2022-10-22T08:36:54;12.00;;;5.50;;
52674;SDS011;38569;52.722;6.440;2022-10-22T08:39:20;19.17;;;6.65;;
52674;SDS011;38569;52.722;6.440;2022-10-22T08:49:52;11.27;;;5.78;;
52674;SDS011;38569;52.722;6.440;2022-10-22T08:52:18;13.82;;;5.65;;
52674;SDS011;38569;52.722;6.440;2022-10-22T08:54:58;20.20;;;5.93;;
52674;SDS011;38569;52.722;6.440;2022-10-22T09:00:17;10.40;;;5.00;;
52674;SDS011;38569;52.722;6.440;2022-10-22T09:03:04;10.85;;;4.90;;
52674;SDS011;38569;52.722;6.440;2022-10-22T09:05:44;13.75;;;5.50;;
52674;SDS011;38569;52.722;6.440;2022-10-22T09:08:19;16.58;;;5.22;;
52674;SDS011;38569;52.722;6.440;2022-10-22T09:10:47;16.35;;;5.57;;
52674;SDS011;38569;52.722;6.440;2022-10-22T09:13:17;8.98;;;4.10;;
52674;SDS011;38569;52.722;6.440;2022-10-22T09:15:52;9.57;;;4.45;;
52674;SDS011;38569;52.722;6.440;2022-10-22T09:23:55;14.27;;;4.68;;
52674;SDS011;38569;52.722;6.440;2022-10-22T09:26:23;12.88;;;4.40;;
52674;SDS011;38569;52.722;6.440;2022-10-22T09:28:50;15.18;;;3.97;;
52674;SDS011;38569;52.722;6.440;2022-10-22T09:31:16;16.90;;;6.57;;
52674;SDS011;38569;52.722;6.440;2022-10-22T09:33:43;15.45;;;5.03;;
52674;SDS011;38569;52.722;6.440;2022-10-22T09:36:17;16.75;;;4.20;;
52674;SDS011;38569;52.722;6.440;2022-10-22T09:38:48;16.52;;;4.63;;
52674;SDS011;38569;52.722;6.440;2022-10-22T09:41:15;14.13;;;4.97;;
52674;SDS011;38569;52.722;6.440;2022-10-22T09:43:45;18.00;;;5.10;;
52674;SDS011;38569;52.722;6.440;2022-10-22T09:46:16;13.00;;;3.67;;
52674;SDS011;38569;52.722;6.440;2022-10-22T09:49:04;8.50;;;3.97;;
52674;SDS011;38569;52.722;6.440;2022-10-22T09:51:48;11.75;;;3.67;;
52674;SDS011;38569;52.722;6.440;2022-10-22T09:56:50;15.67;;;5.37;;
52674;SDS011;38569;52.722;6.440;2022-10-22T09:59:31;11.93;;;4.47;;
52674;SDS011;38569;52.722;6.440;2022-10-22T10:02:23;11.70;;;4.22;;
52674;SDS011;38569;52.722;6.440;2022-10-22T10:04:49;9.02;;;3.60;;
52674;SDS011;38569;52.722;6.440;2022-10-22T10:07:18;11.07;;;3.47;;
52674;SDS011;38569;52.722;6.440;2022-10-22T10:09:45;6.80;;;4.10;;
52674;SDS011;38569;52.722;6.440;2022-10-22T10:17:25;15.35;;;4.30;;
52674;SDS011;38569;52.722;6.440;2022-10-22T10:19:58;11.23;;;4.53;;
52674;SDS011;38569;52.722;6.440;2022-10-22T10:34:06;11.13;;;3.63;;
52674;SDS011;38569;52.722;6.440;2022-10-22T10:39:23;15.63;;;4.65;;
52674;SDS011;38569;52.722;6.440;2022-10-22T10:42:25;12.48;;;4.10;;
52674;SDS011;38569;52.722;6.440;2022-10-22T11:04:32;14.60;;;5.47;;
52674;SDS011;38569;52.722;6.440;2022-10-22T11:07:19;12.82;;;5.50;;
52674;SDS011;38569;52.722;6.440;2022-10-22T11:09:56;15.25;;;6.50;;
52674;SDS011;38569;52.722;6.440;2022-10-22T11:12:29;19.02;;;6.97;;
52674;SDS011;38569;52.722;6.440;2022-10-22T11:17:47;12.73;;;6.60;;
52674;SDS011;38569;52.722;6.440;2022-10-22T11:20:19;12.93;;;5.50;;
52674;SDS011;38569;52.722;6.440;2022-10-22T11:22:52;10.85;;;6.00;;
52674;SDS011;38569;52.722;6.440;2022-10-22T11:25:46;15.82;;;6.43;;
52674;SDS011;38569;52.722;6.440;2022-10-22T11:28:22;12.93;;;6.13;;
52674;SDS011;38569;52.722;6.440;2022-10-22T11:30:59;10.80;;;5.80;;
52674;SDS011;38569;52.722;6.440;2022-10-22T11:33:31;15.65;;;6.07;;
52674;SDS011;38569;52.722;6.440;2022-10-22T11:36:20;15.80;;;5.97;;
52674;SDS011;38569;52.722;6.440;2022-10-22T11:38:48;17.42;;;6.30;;
52674;SDS011;38569;52.722;6.440;2022-10-22T11:41:16;11.07;;;5.43;;
52674;SDS011;38569;52.722;6.440;2022-10-22T11:43:56;13.57;;;5.75;;
52674;SDS011;38569;52.722;6.440;2022-10-22T11:46:34;10.35;;;4.43;;
52674;SDS011;38569;52.722;6.440;2022-10-22T11:49:14;13.88;;;4.72;;
52674;SDS011;38569;52.722;6.440;2022-10-22T11:51:43;13.73;;;4.47;;
52674;SDS011;38569;52.722;6.440;2022-10-22T11:54:27;8.52;;;4.53;;
52674;SDS011;38569;52.722;6.440;2022-10-22T11:57:46;12.57;;;3.67;;
52674;SDS011;38569;52.722;6.440;2022-10-22T11:59:58;10.38;;;3.67;;
52674;SDS011;38569;52.722;6.440;2022-10-22T12:02:29;9.50;;;4.28;;
52674;SDS011;38569;52.722;6.440;2022-10-22T12:10:26;9.10;;;3.50;;
52674;SDS011;38569;52.722;6.440;2022-10-22T12:13:01;12.98;;;3.90;;
52674;SDS011;38569;52.722;6.440;2022-10-22T12:15:46;11.52;;;3.65;;
52674;SDS011;38569;52.722;6.440;2022-10-22T12:18:13;8.95;;;3.55;;
52674;SDS011;38569;52.722;6.440;2022-10-22T12:20:40;14.45;;;3.30;;
52674;SDS011;38569;52.722;6.440;2022-10-22T12:23:08;9.77;;;3.22;;
52674;SDS011;38569;52.722;6.440;2022-10-22T12:25:36;7.90;;;3.67;;
52674;SDS011;38569;52.722;6.440;2022-10-22T12:28:03;10.25;;;3.22;;
52674;SDS011;38569;52.722;6.440;2022-10-22T12:30:30;12.23;;;3.70;;
52674;SDS011;38569;52.722;6.440;2022-10-22T12:32:59;12.52;;;3.58;;
52674;SDS011;38569;52.722;6.440;2022-10-22T12:35:31;16.15;;;4.18;;
52674;SDS011;38569;52.722;6.440;2022-10-22T12:38:17;12.07;;;3.65;;
52674;SDS011;38569;52.722;6.440;2022-10-22T12:40:45;14.43;;;3.55;;
52674;SDS011;38569;52.722;6.440;2022-10-22T12:43:13;13.82;;;3.78;;
52674;SDS011;38569;52.722;6.440;2022-10-22T12:45:41;9.30;;;3.03;;
52674;SDS011;38569;52.722;6.440;2022-10-22T12:48:16;9.57;;;3.35;;
52674;SDS011;38569;52.722;6.440;2022-10-22T12:50:51;10.05;;;2.85;;
52674;SDS011;38569;52.722;6.440;2022-10-22T12:55:50;15.63;;;3.55;;
52674;SDS011;38569;52.722;6.440;2022-10-22T12:58:24;9.68;;;2.92;;
52674;SDS011;38569;52.722;6.440;2022-10-22T13:00:53;8.25;;;3.17;;
52674;SDS011;38569;52.722;6.440;2022-10-22T13:03:35;6.88;;;3.25;;
52674;SDS011;38569;52.722;6.440;2022-10-22T13:06:11;8.20;;;3.22;;
52674;SDS011;38569;52.722;6.440;2022-10-22T13:11:39;10.52;;;3.38;;
52674;SDS011;38569;52.722;6.440;2022-10-22T13:14:17;14.80;;;5.03;;
52674;SDS011;38569;52.722;6.440;2022-10-22T13:19:45;8.57;;;2.30;;
52674;SDS011;38569;52.722;6.440;2022-10-22T13:25:03;9.33;;;2.30;;
52674;SDS011;38569;52.722;6.440;2022-10-22T13:28:15;11.05;;;3.05;;
52674;SDS011;38569;52.722;6.440;2022-10-22T13:30:33;10.70;;;2.67;;
52674;SDS011;38569;52.722;6.440;2022-10-22T13:35:59;12.05;;;3.25;;
52674;SDS011;38569;52.722;6.440;2022-10-22T13:38:25;9.30;;;2.25;;
52674;SDS011;38569;52.722;6.440;2022-10-22T13:40:53;8.35;;;3.05;;
52674;SDS011;38569;52.722;6.440;2022-10-22T13:43:19;13.32;;;2.88;;
52674;SDS011;38569;52.722;6.440;2022-10-22T13:45:51;10.57;;;3.25;;
52674;SDS011;38569;52.722;6.440;2022-10-22T13:48:19;7.43;;;2.63;;
52674;SDS011;38569;52.722;6.440;2022-10-22T13:50:48;12.15;;;2.65;;
52674;SDS011;38569;52.722;6.440;2022-10-22T13:53:16;7.65;;;2.20;;
52674;SDS011;38569;52.722;6.440;2022-10-22T13:55:44;6.43;;;2.22;;
52674;SDS011;38569;52.722;6.440;2022-10-22T14:00:37;8.63;;;2.35;;
52674;SDS011;38569;52.722;6.440;2022-10-22T14:03:07;9.52;;;2.00;;
52674;SDS011;38569;52.722;6.440;2022-10-22T14:05:35;8.93;;;2.45;;
52674;SDS011;38569;52.722;6.440;2022-10-22T14:08:01;14.13;;;2.35;;
52674;SDS011;38569;52.722;6.440;2022-10-22T14:10:27;13.00;;;2.72;;
52674;SDS011;38569;52.722;6.440;2022-10-22T14:12:52;6.10;;;2.20;;
52674;SDS011;38569;52.722;6.440;2022-10-22T14:15:19;9.32;;;2.60;;
52674;SDS011;38569;52.722;6.440;2022-10-22T14:17:52;8.32;;;2.33;;
52674;SDS011;38569;52.722;6.440;2022-10-22T14:20:21;9.27;;;3.55;;
52674;SDS011;38569;52.722;6.440;2022-10-22T14:22:53;9.13;;;2.72;;
52674;SDS011;38569;52.722;6.440;2022-10-22T14:25:20;8.60;;;2.65;;
52674;SDS011;38569;52.722;6.440;2022-10-22T14:27:50;14.43;;;3.00;;
52674;SDS011;38569;52.722;6.440;2022-10-22T14:30:20;9.32;;;2.90;;
52674;SDS011;38569;52.722;6.440;2022-10-22T14:32:48;9.93;;;2.53;;
52674;SDS011;38569;52.722;6.440;2022-10-22T14:35:15;10.40;;;2.58;;
52674;SDS011;38569;52.722;6.440;2022-10-22T14:37:42;6.85;;;2.58;;
52674;SDS011;38569;52.722;6.440;2022-10-22T14:40:08;12.82;;;3.22;;
52674;SDS011;38569;52.722;6.440;2022-10-22T14:42:40;12.32;;;4.70;;
52674;SDS011;38569;52.722;6.440;2022-10-22T14:45:12;9.02;;;2.90;;
52674;SDS011;38569;52.722;6.440;2022-10-22T14:47:38;10.85;;;2.40;;
52674;SDS011;38569;52.722;6.440;2022-10-22T14:50:04;17.10;;;3.50;;
52674;SDS011;38569;52.722;6.440;2022-10-22T14:52:32;17.73;;;4.25;;
52674;SDS011;38569;52.722;6.440;2022-10-22T14:54:58;11.55;;;2.60;;
52674;SDS011;38569;52.722;6.440;2022-10-22T14:57:23;11.73;;;3.15;;
52674;SDS011;38569;52.722;6.440;2022-10-22T14:59:49;21.17;;;4.43;;
52674;SDS011;38569;52.722;6.440;2022-10-22T15:02:19;18.48;;;3.88;;
52674;SDS011;38569;52.722;6.440;2022-10-22T15:04:45;15.45;;;3.33;;
52674;SDS011;38569;52.722;6.440;2022-10-22T15:07:11;15.60;;;2.40;;
52674;SDS011;38569;52.722;6.440;2022-10-22T15:09:37;14.30;;;3.55;;
52674;SDS011;38569;52.722;6.440;2022-10-22T15:12:03;12.75;;;2.83;;
52674;SDS011;38569;52.722;6.440;2022-10-22T15:14:29;19.50;;;3.92;;
52674;SDS011;38569;52.722;6.440;2022-10-22T15:16:55;12.55;;;2.88;;
52674;SDS011;38569;52.722;6.440;2022-10-22T15:19:21;12.27;;;3.55;;
52674;SDS011;38569;52.722;6.440;2022-10-22T15:21:47;11.27;;;3.20;;
52674;SDS011;38569;52.722;6.440;2022-10-22T15:24:12;11.15;;;2.60;;
52674;SDS011;38569;52.722;6.440;2022-10-22T15:26:38;17.80;;;3.78;;
52674;SDS011;38569;52.722;6.440;2022-10-22T15:29:04;12.00;;;2.97;;
52674;SDS011;38569;52.722;6.440;2022-10-22T15:31:46;10.45;;;2.47;;
52674;SDS011;38569;52.722;6.440;2022-10-22T15:34:21;16.83;;;4.22;;
52674;SDS011;38569;52.722;6.440;2022-10-22T15:36:52;18.05;;;4.25;;
52674;SDS011;38569;52.722;6.440;2022-10-22T15:39:20;11.52;;;3.08;;
52674;SDS011;38569;52.722;6.440;2022-10-22T15:41:46;11.82;;;3.72;;
52674;SDS011;38569;52.722;6.440;2022-10-22T15:44:14;11.20;;;3.13;;
52674;SDS011;38569;52.722;6.440;2022-10-22T15:46:42;18.92;;;5.22;;
52674;SDS011;38569;52.722;6.440;2022-10-22T15:49:07;19.23;;;5.57;;
52674;SDS011;38569;52.722;6.440;2022-10-22T15:51:33;17.02;;;4.50;;
52674;SDS011;38569;52.722;6.440;2022-10-22T15:53:59;17.00;;;5.00;;
52674;SDS011;38569;52.722;6.440;2022-10-22T15:56:25;12.65;;;3.20;;
52674;SDS011;38569;52.722;6.440;2022-10-22T15:58:53;12.73;;;3.30;;
52674;SDS011;38569;52.722;6.440;2022-10-22T16:01:22;19.08;;;3.63;;
52674;SDS011;38569;52.722;6.440;2022-10-22T16:03:49;12.90;;;3.50;;
52674;SDS011;38569;52.722;6.440;2022-10-22T16:06:28;13.35;;;3.30;;
52674;SDS011;38569;52.722;6.440;2022-10-22T16:08:56;13.00;;;4.63;;
52674;SDS011;38569;52.722;6.440;2022-10-22T16:11:23;10.80;;;3.85;;
52674;SDS011;38569;52.722;6.440;2022-10-22T16:13:53;13.20;;;4.18;;
52674;SDS011;38569;52.722;6.440;2022-10-22T16:16:21;20.02;;;5.90;;
52674;SDS011;38569;52.722;6.440;2022-10-22T16:18:47;13.85;;;4.50;;
52674;SDS011;38569;52.722;6.440;2022-10-22T16:21:13;15.80;;;5.65;;
52674;SDS011;38569;52.722;6.440;2022-10-22T16:23:40;12.95;;;4.55;;
52674;SDS011;38569;52.722;6.440;2022-10-22T16:26:06;17.45;;;4.85;;
52674;SDS011;38569;52.722;6.440;2022-10-22T16:28:32;15.18;;;5.38;;